createdAt,value
2019-01-26T00:00:13.273Z,1002.26
2019-01-26T00:01:13.221Z,1002.28
2019-01-26T00:02:13.213Z,1002.25
2019-01-26T00:03:13.212Z,1002.24
2019-01-26T00:04:13.190Z,1002.18
2019-01-26T00:05:13.178Z,1002.17
2019-01-26T00:06:13.211Z,1002.16
2019-01-26T00:07:13.159Z,1002.18
2019-01-26T00:08:13.149Z,1002.15
2019-01-26T00:09:13.138Z,1002.19
2019-01-26T00:10:13.129Z,1002.13
2019-01-26T00:11:13.120Z,1002.10
2019-01-26T00:12:13.144Z,1002.08
2019-01-26T00:13:13.095Z,1002.01
2019-01-26T00:14:13.087Z,1002.04
2019-01-26T00:15:13.075Z,1001.94
2019-01-26T00:16:13.065Z,1001.94
2019-01-26T00:17:13.055Z,1001.86
2019-01-26T00:18:13.080Z,1001.88
2019-01-26T00:19:13.033Z,1001.85
2019-01-26T00:20:13.022Z,1001.77
2019-01-26T00:21:13.014Z,1001.75
2019-01-26T00:22:13.004Z,1001.72
2019-01-26T00:23:13.018Z,1001.71
2019-01-26T00:24:13.017Z,1001.68
2019-01-26T00:25:12.970Z,1001.63
2019-01-26T00:26:12.979Z,1001.57
2019-01-26T00:27:12.950Z,1001.53
2019-01-26T00:28:12.937Z,1001.49
2019-01-26T00:29:12.928Z,1001.45
2019-01-26T00:30:12.940Z,1001.38
2019-01-26T00:31:12.907Z,1001.38
2019-01-26T00:32:12.897Z,1001.38
2019-01-26T00:33:12.885Z,1001.36
2019-01-26T00:34:12.876Z,1001.37
2019-01-26T00:35:12.894Z,1001.31
2019-01-26T00:36:12.858Z,1001.32
2019-01-26T00:37:12.844Z,1001.28
2019-01-26T00:38:12.834Z,1001.26
2019-01-26T00:39:12.833Z,1001.24
2019-01-26T00:40:12.837Z,1001.17
2019-01-26T00:41:12.803Z,1001.19
2019-01-26T00:42:12.792Z,1001.17
2019-01-26T00:43:12.781Z,1001.15
2019-01-26T00:44:12.773Z,1001.07
2019-01-26T00:45:12.784Z,1001.00
2019-01-26T00:46:12.750Z,1000.95
2019-01-26T00:47:12.740Z,1000.91
2019-01-26T00:48:12.730Z,1000.92
2019-01-26T00:49:12.730Z,1000.92
2019-01-26T00:50:12.732Z,1000.82
2019-01-26T00:51:17.107Z,1000.81
2019-01-26T00:52:12.685Z,1000.77
2019-01-26T00:53:12.680Z,1000.74
2019-01-26T00:54:12.668Z,1000.72
2019-01-26T00:55:12.680Z,1000.72
2019-01-26T00:56:12.645Z,1000.73
2019-01-26T00:57:12.635Z,1000.77
2019-01-26T00:58:12.624Z,1000.76
2019-01-26T00:59:12.615Z,1000.77
2019-01-26T01:00:12.642Z,1000.77
2019-01-26T01:01:12.594Z,1000.72
2019-01-26T01:02:12.597Z,1000.72
2019-01-26T01:03:12.573Z,1000.69
2019-01-26T01:04:12.561Z,1000.74
2019-01-26T01:05:12.557Z,1000.70
2019-01-26T01:06:12.567Z,1000.67
2019-01-26T01:07:12.530Z,1000.72
2019-01-26T01:08:12.521Z,1000.69
2019-01-26T01:09:12.511Z,1000.67
2019-01-26T01:10:12.525Z,1000.61
2019-01-26T01:11:12.496Z,1000.60
2019-01-26T01:12:12.483Z,1000.53
2019-01-26T01:13:12.478Z,1000.58
2019-01-26T01:14:12.460Z,1000.61
2019-01-26T01:15:12.473Z,1000.61
2019-01-26T01:16:12.440Z,1000.57
2019-01-26T01:17:12.427Z,1000.60
2019-01-26T01:18:12.418Z,1000.56
2019-01-26T01:19:12.409Z,1000.55
2019-01-26T01:20:12.424Z,1000.54
2019-01-26T01:21:12.388Z,1000.55
2019-01-26T01:22:12.419Z,1000.54
2019-01-26T01:23:12.367Z,1000.45
2019-01-26T01:24:12.358Z,1000.44
2019-01-26T01:25:12.370Z,1000.40
2019-01-26T01:26:12.336Z,1000.44
2019-01-26T01:27:12.330Z,1000.44
2019-01-26T01:28:12.316Z,1000.47
2019-01-26T01:29:12.308Z,1000.44
2019-01-26T01:30:12.322Z,1000.47
2019-01-26T01:31:12.286Z,1000.40
2019-01-26T01:32:12.273Z,1000.42
2019-01-26T01:33:13.209Z,1000.29
2019-01-26T01:34:12.252Z,1000.27
2019-01-26T01:35:12.279Z,1000.25
2019-01-26T01:36:12.233Z,1000.26
2019-01-26T01:37:12.221Z,1000.21
2019-01-26T01:38:12.211Z,1000.22
2019-01-26T01:39:12.204Z,1000.16
2019-01-26T01:40:12.218Z,1000.13
2019-01-26T01:41:12.180Z,1000.12
2019-01-26T01:42:12.176Z,1000.06
2019-01-26T01:43:12.159Z,1000.01
2019-01-26T01:44:12.151Z,1000.04
2019-01-26T01:45:12.164Z,1000.06
2019-01-26T01:46:12.128Z,999.99
2019-01-26T01:47:12.120Z,999.97
2019-01-26T01:48:12.108Z,999.92
2019-01-26T01:49:12.098Z,999.91
2019-01-26T01:50:12.114Z,999.87
2019-01-26T01:51:12.078Z,999.83
2019-01-26T01:52:12.069Z,999.87
2019-01-26T01:53:12.056Z,999.80
2019-01-26T01:54:12.048Z,999.74
2019-01-26T01:55:12.077Z,999.77
2019-01-26T01:56:12.028Z,999.70
2019-01-26T01:57:12.013Z,999.71
2019-01-26T01:58:12.007Z,999.63
2019-01-26T01:59:11.997Z,999.65
2019-01-26T02:00:12.008Z,999.61
2019-01-26T02:01:11.973Z,999.66
2019-01-26T02:02:11.961Z,999.63
2019-01-26T02:03:11.952Z,999.70
2019-01-26T02:04:11.943Z,999.65
2019-01-26T02:05:11.958Z,999.57
2019-01-26T02:06:11.922Z,999.57
2019-01-26T02:07:11.910Z,999.54
2019-01-26T02:08:11.909Z,999.57
2019-01-26T02:09:11.891Z,999.55
2019-01-26T02:10:11.909Z,999.55
2019-01-26T02:11:11.870Z,999.52
2019-01-26T02:12:11.860Z,999.52
2019-01-26T02:13:11.849Z,999.49
2019-01-26T02:14:11.842Z,999.47
2019-01-26T02:15:11.853Z,999.43
2019-01-26T02:16:11.819Z,999.44
2019-01-26T02:17:11.807Z,999.44
2019-01-26T02:18:11.819Z,999.34
2019-01-26T02:19:11.787Z,999.32
2019-01-26T02:20:11.804Z,999.34
2019-01-26T02:21:11.768Z,999.35
2019-01-26T02:22:11.757Z,999.25
2019-01-26T02:23:11.751Z,999.23
2019-01-26T02:24:11.737Z,999.21
2019-01-26T02:25:11.749Z,999.22
2019-01-26T02:26:11.716Z,999.33
2019-01-26T02:27:11.705Z,999.26
2019-01-26T02:28:11.694Z,999.19
2019-01-26T02:29:11.690Z,999.12
2019-01-26T02:30:11.699Z,999.21
2019-01-26T02:31:11.686Z,999.16
2019-01-26T02:32:11.653Z,999.06
2019-01-26T02:33:11.642Z,999.01
2019-01-26T02:34:11.631Z,999.00
2019-01-26T02:35:11.646Z,998.94
2019-01-26T02:36:11.615Z,998.94
2019-01-26T02:37:11.600Z,998.93
2019-01-26T02:38:11.593Z,998.88
2019-01-26T02:39:11.585Z,998.91
2019-01-26T02:40:11.598Z,998.78
2019-01-26T02:41:11.566Z,998.82
2019-01-26T02:42:11.553Z,998.85
2019-01-26T02:43:11.543Z,998.91
2019-01-26T02:44:11.532Z,998.90
2019-01-26T02:45:11.543Z,998.88
2019-01-26T02:46:11.508Z,998.87
2019-01-26T02:47:11.501Z,998.83
2019-01-26T02:48:11.489Z,998.81
2019-01-26T02:49:11.478Z,998.83
2019-01-26T02:50:11.494Z,998.83
2019-01-26T02:51:11.458Z,998.79
2019-01-26T02:52:11.451Z,998.79
2019-01-26T02:53:11.444Z,998.78
2019-01-26T02:54:11.427Z,998.72
2019-01-26T02:55:11.444Z,998.66
2019-01-26T02:56:11.409Z,998.62
2019-01-26T02:57:11.395Z,998.65
2019-01-26T02:58:11.386Z,998.65
2019-01-26T02:59:11.377Z,998.62
2019-01-26T03:00:11.390Z,998.59
2019-01-26T03:01:11.354Z,998.66
2019-01-26T03:02:11.344Z,998.68
2019-01-26T03:03:11.336Z,998.67
2019-01-26T03:04:11.324Z,998.66
2019-01-26T03:05:11.339Z,998.60
2019-01-26T03:06:12.202Z,998.53
2019-01-26T03:07:11.292Z,998.50
2019-01-26T03:08:11.285Z,998.48
2019-01-26T03:09:11.273Z,998.40
2019-01-26T03:10:11.287Z,998.37
2019-01-26T03:11:11.252Z,998.42
2019-01-26T03:12:11.242Z,998.36
2019-01-26T03:13:11.230Z,998.39
2019-01-26T03:14:11.249Z,998.35
2019-01-26T03:15:11.236Z,998.36
2019-01-26T03:16:11.199Z,998.28
2019-01-26T03:17:11.199Z,998.27
2019-01-26T03:18:11.182Z,998.20
2019-01-26T03:19:11.168Z,998.25
2019-01-26T03:20:11.185Z,998.23
2019-01-26T03:21:11.148Z,998.18
2019-01-26T03:22:11.137Z,998.12
2019-01-26T03:23:11.128Z,998.17
2019-01-26T03:24:11.118Z,998.11
2019-01-26T03:25:11.130Z,998.11
2019-01-26T03:26:11.097Z,998.11
2019-01-26T03:27:11.108Z,998.17
2019-01-26T03:28:11.075Z,998.13
2019-01-26T03:29:11.062Z,998.17
2019-01-26T03:30:11.086Z,998.10
2019-01-26T03:31:11.081Z,998.12
2019-01-26T03:32:11.035Z,998.11
2019-01-26T03:33:11.021Z,998.07
2019-01-26T03:34:11.011Z,998.08
2019-01-26T03:35:11.026Z,998.09
2019-01-26T03:36:10.992Z,998.11
2019-01-26T03:37:10.993Z,998.08
2019-01-26T03:38:10.969Z,998.10
2019-01-26T03:39:10.959Z,998.10
2019-01-26T03:40:10.974Z,998.09
2019-01-26T03:41:10.938Z,998.07
2019-01-26T03:42:10.926Z,998.07
2019-01-26T03:43:10.917Z,998.09
2019-01-26T03:44:10.905Z,998.07
2019-01-26T03:45:10.921Z,998.08
2019-01-26T03:46:10.885Z,998.04
2019-01-26T03:47:13.730Z,997.97
2019-01-26T03:48:10.871Z,997.96
2019-01-26T03:49:10.853Z,997.94
2019-01-26T03:50:10.871Z,997.94
2019-01-26T03:51:10.833Z,997.99
2019-01-26T03:52:10.824Z,997.93
2019-01-26T03:53:10.817Z,997.95
2019-01-26T03:54:10.802Z,997.98
2019-01-26T03:55:10.817Z,997.93
2019-01-26T03:56:10.783Z,997.90
2019-01-26T03:57:10.772Z,997.94
2019-01-26T03:58:10.769Z,997.88
2019-01-26T03:59:10.752Z,997.89
2019-01-26T04:00:10.773Z,997.80
2019-01-26T04:01:10.729Z,997.75
2019-01-26T04:02:10.719Z,997.73
2019-01-26T04:03:10.708Z,997.76
2019-01-26T04:04:10.699Z,997.74
2019-01-26T04:05:10.710Z,997.69
2019-01-26T04:06:10.682Z,997.69
2019-01-26T04:07:10.668Z,997.70
2019-01-26T04:08:10.655Z,997.64
2019-01-26T04:09:10.653Z,997.66
2019-01-26T04:10:10.676Z,997.67
2019-01-26T04:11:10.627Z,997.63
2019-01-26T04:12:10.616Z,997.61
2019-01-26T04:13:10.611Z,997.59
2019-01-26T04:14:10.593Z,997.57
2019-01-26T04:15:10.608Z,997.55
2019-01-26T04:16:10.575Z,997.60
2019-01-26T04:17:10.567Z,997.57
2019-01-26T04:18:10.550Z,997.51
2019-01-26T04:19:10.542Z,997.56
2019-01-26T04:20:10.573Z,997.51
2019-01-26T04:21:10.523Z,997.52
2019-01-26T04:22:10.511Z,997.50
2019-01-26T04:23:10.504Z,997.47
2019-01-26T04:24:10.489Z,997.50
2019-01-26T04:25:10.503Z,997.46
2019-01-26T04:26:10.469Z,997.44
2019-01-26T04:27:10.457Z,997.44
2019-01-26T04:28:10.445Z,997.46
2019-01-26T04:29:11.426Z,997.51
2019-01-26T04:30:10.455Z,997.50
2019-01-26T04:31:10.417Z,997.47
2019-01-26T04:32:10.403Z,997.45
2019-01-26T04:33:10.416Z,997.45
2019-01-26T04:34:10.383Z,997.51
2019-01-26T04:35:10.397Z,997.50
2019-01-26T04:36:10.361Z,997.51
2019-01-26T04:37:10.351Z,997.52
2019-01-26T04:38:10.341Z,997.55
2019-01-26T04:39:10.328Z,997.54
2019-01-26T04:40:10.343Z,997.48
2019-01-26T04:41:10.308Z,997.39
2019-01-26T04:42:10.312Z,997.39
2019-01-26T04:43:10.287Z,997.40
2019-01-26T04:44:10.317Z,997.33
2019-01-26T04:45:10.264Z,997.36
2019-01-26T04:46:10.259Z,997.34
2019-01-26T04:47:10.244Z,997.33
2019-01-26T04:48:10.233Z,997.29
2019-01-26T04:49:10.222Z,997.34
2019-01-26T04:50:10.247Z,997.35
2019-01-26T04:51:10.200Z,997.32
2019-01-26T04:52:10.191Z,997.28
2019-01-26T04:53:10.182Z,997.28
2019-01-26T04:54:10.168Z,997.28
2019-01-26T04:55:10.160Z,997.27
2019-01-26T04:56:10.182Z,997.23
2019-01-26T04:57:10.136Z,997.21
2019-01-26T04:58:10.130Z,997.18
2019-01-26T04:59:10.114Z,997.20
2019-01-26T05:00:10.108Z,997.16
2019-01-26T05:01:10.100Z,997.19
2019-01-26T05:02:10.110Z,997.19
2019-01-26T05:03:10.075Z,997.18
2019-01-26T05:04:10.062Z,997.15
2019-01-26T05:05:10.052Z,997.22
2019-01-26T05:06:10.043Z,997.17
2019-01-26T05:07:10.067Z,997.18
2019-01-26T05:08:10.019Z,997.19
2019-01-26T05:09:10.011Z,997.19
2019-01-26T05:10:09.998Z,997.13
2019-01-26T05:11:09.989Z,997.19
2019-01-26T05:12:09.985Z,997.13
2019-01-26T05:13:10.002Z,997.13
2019-01-26T05:14:09.959Z,997.17
2019-01-26T05:15:09.950Z,997.16
2019-01-26T05:16:09.937Z,997.18
2019-01-26T05:17:09.924Z,997.16
2019-01-26T05:18:09.927Z,997.13
2019-01-26T05:19:16.968Z,997.15
2019-01-26T05:20:09.897Z,997.19
2019-01-26T05:21:09.883Z,997.16
2019-01-26T05:22:09.872Z,997.15
2019-01-26T05:23:09.862Z,997.16
2019-01-26T05:24:09.852Z,997.18
2019-01-26T05:25:09.906Z,997.18
2019-01-26T05:26:09.832Z,997.17
2019-01-26T05:27:09.823Z,997.18
2019-01-26T05:28:09.809Z,997.10
2019-01-26T05:29:09.804Z,997.13
2019-01-26T05:30:09.792Z,997.15
2019-01-26T05:31:09.815Z,997.15
2019-01-26T05:32:09.767Z,997.16
2019-01-26T05:33:09.757Z,997.17
2019-01-26T05:34:09.747Z,997.15
2019-01-26T05:35:09.737Z,997.10
2019-01-26T05:36:09.729Z,997.13
2019-01-26T05:37:09.742Z,997.10
2019-01-26T05:38:09.704Z,997.01
2019-01-26T05:39:09.695Z,997.00
2019-01-26T05:40:09.685Z,996.97
2019-01-26T05:41:09.674Z,996.98
2019-01-26T05:42:09.698Z,996.95
2019-01-26T05:43:09.653Z,996.92
2019-01-26T05:44:09.643Z,996.88
2019-01-26T05:45:09.637Z,996.85
2019-01-26T05:46:09.624Z,996.90
2019-01-26T05:47:09.610Z,996.86
2019-01-26T05:48:09.637Z,996.88
2019-01-26T05:49:09.594Z,996.88
2019-01-26T05:50:09.578Z,996.87
2019-01-26T05:51:09.571Z,996.88
2019-01-26T05:52:09.560Z,996.88
2019-01-26T05:53:09.549Z,996.89
2019-01-26T05:54:09.562Z,996.82
2019-01-26T05:55:09.531Z,996.84
2019-01-26T05:56:09.525Z,996.84
2019-01-26T05:57:09.506Z,996.83
2019-01-26T05:58:09.496Z,996.81
2019-01-26T05:59:09.531Z,996.73
2019-01-26T06:00:09.474Z,996.76
2019-01-26T06:01:09.479Z,996.78
2019-01-26T06:02:09.454Z,996.79
2019-01-26T06:03:09.444Z,996.79
2019-01-26T06:04:09.433Z,996.79
2019-01-26T06:05:09.458Z,996.82
2019-01-26T06:06:09.412Z,996.80
2019-01-26T06:07:09.400Z,996.79
2019-01-26T06:08:09.392Z,996.79
2019-01-26T06:09:09.388Z,996.75
2019-01-26T06:10:09.369Z,996.86
2019-01-26T06:11:09.397Z,996.83
2019-01-26T06:12:09.349Z,996.83
2019-01-26T06:13:09.338Z,996.86
2019-01-26T06:14:09.328Z,996.86
2019-01-26T06:15:09.320Z,996.87
2019-01-26T06:16:09.306Z,996.82
2019-01-26T06:17:09.322Z,996.80
2019-01-26T06:18:09.289Z,996.77
2019-01-26T06:19:09.276Z,996.76
2019-01-26T06:20:09.268Z,996.77
2019-01-26T06:21:09.255Z,996.75
2019-01-26T06:22:09.282Z,996.70
2019-01-26T06:23:09.234Z,996.76
2019-01-26T06:24:09.222Z,996.78
2019-01-26T06:25:09.213Z,996.83
2019-01-26T06:26:09.206Z,996.84
2019-01-26T06:27:09.190Z,996.80
2019-01-26T06:28:09.222Z,996.85
2019-01-26T06:29:09.172Z,996.81
2019-01-26T06:30:09.159Z,996.82
2019-01-26T06:31:09.149Z,996.87
2019-01-26T06:32:09.139Z,996.84
2019-01-26T06:33:09.128Z,996.82
2019-01-26T06:34:09.143Z,996.79
2019-01-26T06:35:09.108Z,996.79
2019-01-26T06:36:09.103Z,996.75
2019-01-26T06:37:09.086Z,996.76
2019-01-26T06:38:09.075Z,996.73
2019-01-26T06:39:09.106Z,996.75
2019-01-26T06:40:09.054Z,996.70
2019-01-26T06:41:09.045Z,996.68
2019-01-26T06:42:09.032Z,996.65
2019-01-26T06:43:09.022Z,996.65
2019-01-26T06:44:09.014Z,996.67
2019-01-26T06:45:09.038Z,996.68
2019-01-26T06:46:08.993Z,996.72
2019-01-26T06:47:08.978Z,996.64
2019-01-26T06:48:08.968Z,996.65
2019-01-26T06:49:08.960Z,996.66
2019-01-26T06:50:08.948Z,996.65
2019-01-26T06:51:08.975Z,996.70
2019-01-26T06:52:08.928Z,996.69
2019-01-26T06:53:08.917Z,996.68
2019-01-26T06:54:08.911Z,996.61
2019-01-26T06:55:08.896Z,996.67
2019-01-26T06:56:08.888Z,996.61
2019-01-26T06:57:08.898Z,996.62
2019-01-26T06:58:08.863Z,996.58
2019-01-26T06:59:08.852Z,996.60
2019-01-26T07:00:08.842Z,996.63
2019-01-26T07:01:08.835Z,996.63
2019-01-26T07:02:08.859Z,996.64
2019-01-26T07:03:08.810Z,996.64
2019-01-26T07:04:08.798Z,996.63
2019-01-26T07:05:08.791Z,996.67
2019-01-26T07:06:08.778Z,996.64
2019-01-26T07:07:08.773Z,996.60
2019-01-26T07:08:08.794Z,996.56
2019-01-26T07:09:08.750Z,996.58
2019-01-26T07:10:08.738Z,996.60
2019-01-26T07:11:08.729Z,996.58
2019-01-26T07:12:08.716Z,996.54
2019-01-26T07:13:08.704Z,996.58
2019-01-26T07:14:08.720Z,996.57
2019-01-26T07:15:08.683Z,996.54
2019-01-26T07:16:08.676Z,996.57
2019-01-26T07:17:08.661Z,996.57
2019-01-26T07:18:09.601Z,996.60
2019-01-26T07:19:08.686Z,996.56
2019-01-26T07:20:08.628Z,996.60
2019-01-26T07:21:08.619Z,996.61
2019-01-26T07:22:08.608Z,996.66
2019-01-26T07:23:08.597Z,996.64
2019-01-26T07:24:08.588Z,996.64
2019-01-26T07:25:08.673Z,996.65
2019-01-26T07:26:08.566Z,996.64
2019-01-26T07:27:08.556Z,996.66
2019-01-26T07:28:08.544Z,996.64
2019-01-26T07:29:08.533Z,996.66
2019-01-26T07:30:08.530Z,996.67
2019-01-26T07:31:08.549Z,996.68
2019-01-26T07:32:08.503Z,996.70
2019-01-26T07:33:08.499Z,996.69
2019-01-26T07:34:08.483Z,996.74
2019-01-26T07:35:08.470Z,996.72
2019-01-26T07:36:08.459Z,996.76
2019-01-26T07:37:08.487Z,996.72
2019-01-26T07:38:13.550Z,996.76
2019-01-26T07:39:09.430Z,996.75
2019-01-26T07:40:08.419Z,996.72
2019-01-26T07:41:08.413Z,996.75
2019-01-26T07:42:08.402Z,996.74
2019-01-26T07:43:08.426Z,996.73
2019-01-26T07:44:08.383Z,996.79
2019-01-26T07:45:08.372Z,996.74
2019-01-26T07:46:08.366Z,996.77
2019-01-26T07:47:08.346Z,996.73
2019-01-26T07:48:08.341Z,996.72
2019-01-26T07:49:09.443Z,996.77
2019-01-26T07:50:08.316Z,996.78
2019-01-26T07:51:08.321Z,996.78
2019-01-26T07:52:08.308Z,996.80
2019-01-26T07:53:08.283Z,996.77
2019-01-26T07:54:08.300Z,996.80
2019-01-26T07:55:08.267Z,996.80
2019-01-26T07:56:08.263Z,996.80
2019-01-26T07:57:08.242Z,996.75
2019-01-26T07:58:08.232Z,996.77
2019-01-26T07:59:08.247Z,996.77
2019-01-26T08:00:08.210Z,996.79
2019-01-26T08:01:08.202Z,996.80
2019-01-26T08:02:08.190Z,996.84
2019-01-26T08:03:08.184Z,996.86
2019-01-26T08:04:08.207Z,996.85
2019-01-26T08:05:08.161Z,996.87
2019-01-26T08:06:08.148Z,996.86
2019-01-26T08:07:08.143Z,996.82
2019-01-26T08:08:08.129Z,996.83
2019-01-26T08:09:08.117Z,996.82
2019-01-26T08:10:08.131Z,996.82
2019-01-26T08:11:08.096Z,996.85
2019-01-26T08:12:08.084Z,996.87
2019-01-26T08:13:08.075Z,996.84
2019-01-26T08:14:08.065Z,996.85
2019-01-26T08:15:08.080Z,996.81
2019-01-26T08:16:08.045Z,996.75
2019-01-26T08:17:08.033Z,996.77
2019-01-26T08:18:08.023Z,996.80
2019-01-26T08:19:08.014Z,996.76
2019-01-26T08:20:08.036Z,996.72
2019-01-26T08:21:07.997Z,996.73
2019-01-26T08:22:07.983Z,996.73
2019-01-26T08:23:07.968Z,996.71
2019-01-26T08:24:07.964Z,996.72
2019-01-26T08:25:07.947Z,996.71
2019-01-26T08:26:07.964Z,996.70
2019-01-26T08:27:07.927Z,996.73
2019-01-26T08:28:07.916Z,996.72
2019-01-26T08:29:07.907Z,996.74
2019-01-26T08:30:07.892Z,996.72
2019-01-26T08:31:07.909Z,996.71
2019-01-26T08:32:07.872Z,996.69
2019-01-26T08:33:07.908Z,996.67
2019-01-26T08:34:07.849Z,996.65
2019-01-26T08:35:07.862Z,996.66
2019-01-26T08:36:07.867Z,996.69
2019-01-26T08:37:07.818Z,996.63
2019-01-26T08:38:07.809Z,996.62
2019-01-26T08:39:07.796Z,996.64
2019-01-26T08:40:07.785Z,996.66
2019-01-26T08:41:07.774Z,996.64
2019-01-26T08:42:07.797Z,996.66
2019-01-26T08:43:07.938Z,996.67
2019-01-26T08:44:07.740Z,996.63
2019-01-26T08:45:07.730Z,996.67
2019-01-26T08:46:07.718Z,996.70
2019-01-26T08:47:07.733Z,996.71
2019-01-26T08:48:07.697Z,996.68
2019-01-26T08:49:08.780Z,996.73
2019-01-26T08:50:07.676Z,996.73
2019-01-26T08:51:07.666Z,996.74
2019-01-26T08:52:07.715Z,996.74
2019-01-26T08:53:07.647Z,996.74
2019-01-26T08:54:07.636Z,996.72
2019-01-26T08:55:07.624Z,996.69
2019-01-26T08:56:07.612Z,996.71
2019-01-26T08:57:07.600Z,996.73
2019-01-26T08:58:07.627Z,996.70
2019-01-26T08:59:07.588Z,996.73
2019-01-26T09:00:07.567Z,996.71
2019-01-26T09:01:07.556Z,996.77
2019-01-26T09:02:07.546Z,996.78
2019-01-26T09:03:07.535Z,996.73
2019-01-26T09:04:07.550Z,996.74
2019-01-26T09:05:07.516Z,996.73
2019-01-26T09:06:07.504Z,996.76
2019-01-26T09:07:07.492Z,996.73
2019-01-26T09:08:07.482Z,996.76
2019-01-26T09:09:07.497Z,996.76
2019-01-26T09:10:07.462Z,996.77
2019-01-26T09:11:07.449Z,996.71
2019-01-26T09:12:07.439Z,996.72
2019-01-26T09:13:07.430Z,996.75
2019-01-26T09:14:07.453Z,996.74
2019-01-26T09:15:07.406Z,996.72
2019-01-26T09:16:07.399Z,996.74
2019-01-26T09:17:07.386Z,996.74
2019-01-26T09:18:07.391Z,996.75
2019-01-26T09:19:07.364Z,996.74
2019-01-26T09:20:07.380Z,996.79
2019-01-26T09:21:07.341Z,996.80
2019-01-26T09:22:07.335Z,996.74
2019-01-26T09:23:07.322Z,996.78
2019-01-26T09:24:07.310Z,996.77
2019-01-26T09:25:07.323Z,996.77
2019-01-26T09:26:07.289Z,996.74
2019-01-26T09:27:07.280Z,996.80
2019-01-26T09:28:07.268Z,996.79
2019-01-26T09:29:07.258Z,996.80
2019-01-26T09:30:07.285Z,996.83
2019-01-26T09:31:07.236Z,996.81
2019-01-26T09:32:07.225Z,996.79
2019-01-26T09:33:07.215Z,996.79
2019-01-26T09:34:07.205Z,996.86
2019-01-26T09:35:07.197Z,996.83
2019-01-26T09:36:07.211Z,996.84
2019-01-26T09:37:07.173Z,996.80
2019-01-26T09:38:07.169Z,996.76
2019-01-26T09:39:07.152Z,996.78
2019-01-26T09:40:07.141Z,996.80
2019-01-26T09:41:07.155Z,996.76
2019-01-26T09:42:07.121Z,996.77
2019-01-26T09:43:07.111Z,996.74
2019-01-26T09:44:07.098Z,996.75
2019-01-26T09:45:07.086Z,996.74
2019-01-26T09:46:07.105Z,996.77
2019-01-26T09:47:07.068Z,996.73
2019-01-26T09:48:07.059Z,996.74
2019-01-26T09:49:07.045Z,996.74
2019-01-26T09:50:07.037Z,996.80
2019-01-26T09:51:07.047Z,996.80
2019-01-26T09:52:07.017Z,996.77
2019-01-26T09:53:07.002Z,996.78
2019-01-26T09:54:06.991Z,996.80
2019-01-26T09:55:06.981Z,996.78
2019-01-26T09:56:07.009Z,996.81
2019-01-26T09:57:06.962Z,996.79
2019-01-26T09:58:06.949Z,996.79
2019-01-26T09:59:06.981Z,996.82
2019-01-26T10:00:06.928Z,996.76
2019-01-26T10:01:06.918Z,996.73
2019-01-26T10:02:06.947Z,996.76
2019-01-26T10:03:06.897Z,996.74
2019-01-26T10:04:06.889Z,996.75
2019-01-26T10:05:06.875Z,996.70
2019-01-26T10:06:06.865Z,996.73
2019-01-26T10:07:06.858Z,996.65
2019-01-26T10:08:06.880Z,996.63
2019-01-26T10:09:06.835Z,996.59
2019-01-26T10:10:06.822Z,996.62
2019-01-26T10:11:06.812Z,996.61
2019-01-26T10:12:06.799Z,996.63
2019-01-26T10:13:06.789Z,996.63
2019-01-26T10:14:06.804Z,996.60
2019-01-26T10:15:06.769Z,996.60
2019-01-26T10:16:06.758Z,996.63
2019-01-26T10:17:06.758Z,996.62
2019-01-26T10:20:24.317Z,996.64
2019-01-26T10:21:24.307Z,996.62
2019-01-26T10:22:25.634Z,996.58
2019-01-26T10:23:24.286Z,996.62
2019-01-26T10:24:24.308Z,996.62
2019-01-26T10:25:24.269Z,996.61
2019-01-26T10:26:24.254Z,996.59
2019-01-26T10:27:24.243Z,996.55
2019-01-26T10:28:24.233Z,996.54
2019-01-26T10:29:24.275Z,996.51
2019-01-26T10:30:24.212Z,996.53
2019-01-26T10:31:24.201Z,996.53
2019-01-26T10:32:24.190Z,996.50
2019-01-26T10:33:24.180Z,996.55
2019-01-26T10:35:25.912Z,996.55
2019-01-26T10:35:26.038Z,996.56
2019-01-26T10:36:45.151Z,996.55
2019-01-26T10:37:24.149Z,996.51
2019-01-26T10:38:24.130Z,996.50
2019-01-26T10:39:24.118Z,996.52
2019-01-26T10:40:24.143Z,996.51
2019-01-26T10:41:24.094Z,996.48
2019-01-26T10:42:24.085Z,996.52
2019-01-26T10:43:24.077Z,996.50
2019-01-26T10:44:24.064Z,996.54
2019-01-26T10:45:24.051Z,996.49
2019-01-26T10:46:24.081Z,996.46
2019-01-26T10:47:24.043Z,996.46
2019-01-26T10:48:24.023Z,996.39
2019-01-26T10:49:24.013Z,996.50
2019-01-26T10:50:23.999Z,996.43
2019-01-26T10:51:23.988Z,996.41
2019-01-26T10:52:24.014Z,996.38
2019-01-26T10:53:23.969Z,996.42
2019-01-26T10:54:23.957Z,996.41
2019-01-26T10:55:23.948Z,996.44
2019-01-26T10:56:23.937Z,996.43
2019-01-26T10:57:23.940Z,996.49
2019-01-26T10:58:23.939Z,996.46
2019-01-26T10:59:23.906Z,996.44
2019-01-26T11:00:23.894Z,996.46
2019-01-26T11:01:23.883Z,996.48
2019-01-26T11:02:23.875Z,996.49
2019-01-26T11:03:23.888Z,996.47
2019-01-26T11:04:23.851Z,996.50
2019-01-26T11:05:23.840Z,996.48
2019-01-26T11:06:23.831Z,996.39
2019-01-26T11:07:23.820Z,996.48
2019-01-26T11:08:23.847Z,996.47
2019-01-26T11:09:23.798Z,996.44
2019-01-26T11:10:23.805Z,996.44
2019-01-26T11:11:23.844Z,996.47
2019-01-26T11:12:23.771Z,996.45
2019-01-26T11:13:23.758Z,996.42
2019-01-26T11:14:23.781Z,996.46
2019-01-26T11:15:23.818Z,996.48
2019-01-26T11:16:23.758Z,996.47
2019-01-26T11:17:23.720Z,996.48
2019-01-26T11:18:23.706Z,996.48
2019-01-26T11:19:23.739Z,996.44
2019-01-26T11:20:23.708Z,996.51
2019-01-26T11:21:23.673Z,996.46
2019-01-26T11:22:23.663Z,996.44
2019-01-26T11:23:23.657Z,996.47
2019-01-26T11:24:23.641Z,996.43
2019-01-26T11:25:23.671Z,996.42
2019-01-26T11:26:23.621Z,996.38
2019-01-26T11:27:23.611Z,996.35
2019-01-26T11:28:23.598Z,996.34
2019-01-26T11:29:23.589Z,996.40
2019-01-26T11:30:23.581Z,996.40
2019-01-26T11:31:30.624Z,996.39
2019-01-26T11:32:23.557Z,996.36
2019-01-26T11:33:23.547Z,996.37
2019-01-26T11:34:23.538Z,996.34
2019-01-26T11:35:23.526Z,996.29
2019-01-26T11:36:23.556Z,996.31
2019-01-26T11:37:23.516Z,996.30
2019-01-26T11:38:23.498Z,996.30
2019-01-26T11:39:23.497Z,996.25
2019-01-26T11:40:23.474Z,996.29
2019-01-26T11:41:23.469Z,996.23
2019-01-26T11:42:23.480Z,996.27
2019-01-26T11:43:23.442Z,996.29
2019-01-26T11:44:23.439Z,996.28
2019-01-26T11:45:23.423Z,996.29
2019-01-26T11:46:23.416Z,996.30
2019-01-26T11:47:23.436Z,996.28
2019-01-26T11:48:23.404Z,996.30
2019-01-26T11:49:23.379Z,996.32
2019-01-26T11:50:23.369Z,996.32
2019-01-26T11:51:23.360Z,996.27
2019-01-26T11:52:23.347Z,996.32
2019-01-26T11:53:23.374Z,996.33
2019-01-26T11:54:23.327Z,996.34
2019-01-26T11:55:23.316Z,996.35
2019-01-26T11:56:23.305Z,996.35
2019-01-26T11:57:23.294Z,996.31
2019-01-26T11:58:23.285Z,996.30
2019-01-26T11:59:23.351Z,996.34
2019-01-26T12:00:23.340Z,996.26
2019-01-26T12:01:23.253Z,996.24
2019-01-26T12:02:29.745Z,996.24
2019-01-26T12:03:24.229Z,996.26
2019-01-26T12:04:23.222Z,996.23
2019-01-26T12:05:23.238Z,996.28
2019-01-26T12:06:23.736Z,996.22
2019-01-26T12:07:23.187Z,996.20
2019-01-26T12:08:23.177Z,996.20
2019-01-26T12:09:23.167Z,996.22
2019-01-26T12:10:23.183Z,996.18
2019-01-26T12:11:23.144Z,996.24
2019-01-26T12:12:23.133Z,996.16
2019-01-26T12:13:23.123Z,996.20
2019-01-26T12:14:23.114Z,996.20
2019-01-26T12:15:23.131Z,996.17
2019-01-26T12:16:27.125Z,996.16
2019-01-26T12:17:23.105Z,996.13
2019-01-26T12:18:23.072Z,996.15
2019-01-26T12:19:23.065Z,996.15
2019-01-26T12:20:23.074Z,996.14
2019-01-26T12:21:23.041Z,996.12
2019-01-26T12:22:23.026Z,996.11
2019-01-26T12:23:23.015Z,996.09
2019-01-26T12:24:23.004Z,996.06
2019-01-26T12:25:23.040Z,996.05
2019-01-26T12:26:22.992Z,996.02
2019-01-26T12:27:22.969Z,996.05